KBLV/BLV METAR and TAF weather

Enter ICAO airport designator
Station Type Date Time Source
KBLV METAR 2022/06/27 18:56 UTC NOAA

KBLV 271856Z 33008KT 10SM FEW220 26/09 A3025 RMK AO2A SLP244 T02610090 VISNO RWY14R CHINO RWY14R $


Station Type Date Time Source
KBLV Decoded METAR 2022/06/27 18:56 UTC NOAA

Belleville, Scott AFB/MidAmerica Airport, IL, United States (KBLV) 38-33N 089-51W
Jun 27, 2022 - 02:56 PM EDT / 2022.06.27 1856 UTC
Wind: from the NNW (330 degrees) at 9 MPH (8 KT):0
Visibility: 10 mile(s):0
Sky conditions: mostly clear
Temperature: 79.0 F (26.1 C)
Dew Point: 48.2 F (9.0 C)
Relative Humidity: 33%
Pressure (altimeter): 30.25 in. Hg (1024 hPa)
ob: KBLV 271856Z 33008KT 10SM FEW220 26/09 A3025 RMK AO2A SLP244 T02610090 VISNO RWY14R CHINO RWY14R
cycle: 19

Station Type Date Time Source
KBLV TAF 2022/06/27 16:57 UTC NOAA

TAF KBLV 271600Z 2716/2822 36009KT 9999 FEW250 QNH3020INS
BECMG 2805/2806 VRB06KT 9999 SCT250 QNH3017INS TX27/2721Z TN14/2811Z

Example: see airport list